sensor_id;sensor_type;location;lat;lon;timestamp;temperature;humidity
14893;DHT22;7538;53.626;9.906;2023-11-18T00:01:38;6.10;99.90
14893;DHT22;7538;53.626;9.906;2023-11-18T00:04:06;6.20;99.90
14893;DHT22;7538;53.626;9.906;2023-11-18T00:06:41;7.80;99.90
14893;DHT22;7538;53.626;9.906;2023-11-18T00:09:10;6.20;99.90
14893;DHT22;7538;53.626;9.906;2023-11-18T00:11:38;7.20;99.90
14893;DHT22;7538;53.626;9.906;2023-11-18T00:14:05;6.40;99.90
14893;DHT22;7538;53.626;9.906;2023-11-18T00:16:33;6.30;99.90
14893;DHT22;7538;53.626;9.906;2023-11-18T00:19:00;7.50;99.90
14893;DHT22;7538;53.626;9.906;2023-11-18T00:21:30;7.30;99.90
14893;DHT22;7538;53.626;9.906;2023-11-18T00:23:57;7.90;99.90
14893;DHT22;7538;53.626;9.906;2023-11-18T00:26:23;7.10;99.90
14893;DHT22;7538;53.626;9.906;2023-11-18T00:28:51;7.80;99.90
14893;DHT22;7538;53.626;9.906;2023-11-18T00:31:18;7.30;99.90
14893;DHT22;7538;53.626;9.906;2023-11-18T00:33:46;7.30;99.90
14893;DHT22;7538;53.626;9.906;2023-11-18T00:36:13;7.30;99.90
14893;DHT22;7538;53.626;9.906;2023-11-18T00:38:40;6.40;99.90
14893;DHT22;7538;53.626;9.906;2023-11-18T00:41:06;6.40;99.90
14893;DHT22;7538;53.626;9.906;2023-11-18T00:43:33;9.20;99.90
14893;DHT22;7538;53.626;9.906;2023-11-18T00:46:00;7.80;99.90
14893;DHT22;7538;53.626;9.906;2023-11-18T00:48:28;6.90;99.90
14893;DHT22;7538;53.626;9.906;2023-11-18T00:50:57;6.40;99.90
14893;DHT22;7538;53.626;9.906;2023-11-18T00:53:24;7.00;99.90
14893;DHT22;7538;53.626;9.906;2023-11-18T00:55:50;6.40;99.90
14893;DHT22;7538;53.626;9.906;2023-11-18T00:58:17;6.40;99.90
14893;DHT22;7538;53.626;9.906;2023-11-18T01:00:44;7.10;99.90
14893;DHT22;7538;53.626;9.906;2023-11-18T01:03:11;6.40;99.90
14893;DHT22;7538;53.626;9.906;2023-11-18T01:05:37;6.40;99.90
14893;DHT22;7538;53.626;9.906;2023-11-18T01:08:06;8.70;99.90
14893;DHT22;7538;53.626;9.906;2023-11-18T01:10:32;6.40;99.90
14893;DHT22;7538;53.626;9.906;2023-11-18T01:12:59;6.40;99.90
14893;DHT22;7538;53.626;9.906;2023-11-18T01:15:26;6.40;99.90
14893;DHT22;7538;53.626;9.906;2023-11-18T01:17:53;6.40;99.90
14893;DHT22;7538;53.626;9.906;2023-11-18T01:20:20;7.40;99.90
14893;DHT22;7538;53.626;9.906;2023-11-18T01:22:47;9.50;99.90
14893;DHT22;7538;53.626;9.906;2023-11-18T01:25:16;6.40;99.90
14893;DHT22;7538;53.626;9.906;2023-11-18T01:27:44;7.40;99.90
14893;DHT22;7538;53.626;9.906;2023-11-18T01:30:13;6.40;99.90
14893;DHT22;7538;53.626;9.906;2023-11-18T01:32:40;6.40;99.90
14893;DHT22;7538;53.626;9.906;2023-11-18T01:35:08;6.40;99.90
14893;DHT22;7538;53.626;9.906;2023-11-18T01:37:36;6.40;99.90
14893;DHT22;7538;53.626;9.906;2023-11-18T01:40:04;6.40;99.90
14893;DHT22;7538;53.626;9.906;2023-11-18T01:42:33;6.40;99.90
14893;DHT22;7538;53.626;9.906;2023-11-18T01:45:00;6.40;99.90
14893;DHT22;7538;53.626;9.906;2023-11-18T01:47:29;7.70;99.90
14893;DHT22;7538;53.626;9.906;2023-11-18T01:49:58;8.10;99.90
14893;DHT22;7538;53.626;9.906;2023-11-18T01:52:26;6.40;99.90
14893;DHT22;7538;53.626;9.906;2023-11-18T01:54:56;8.60;99.90
14893;DHT22;7538;53.626;9.906;2023-11-18T01:57:23;7.20;99.90
14893;DHT22;7538;53.626;9.906;2023-11-18T01:59:53;8.10;99.90
14893;DHT22;7538;53.626;9.906;2023-11-18T02:02:20;6.40;99.90
14893;DHT22;7538;53.626;9.906;2023-11-18T02:04:47;8.90;99.90
14893;DHT22;7538;53.626;9.906;2023-11-18T02:07:14;7.40;99.90
14893;DHT22;7538;53.626;9.906;2023-11-18T02:09:42;4.80;99.90
14893;DHT22;7538;53.626;9.906;2023-11-18T02:12:21;6.30;99.90
14893;DHT22;7538;53.626;9.906;2023-11-18T02:14:49;7.20;99.90
14893;DHT22;7538;53.626;9.906;2023-11-18T02:17:21;6.30;99.90
14893;DHT22;7538;53.626;9.906;2023-11-18T02:19:50;6.40;99.90
14893;DHT22;7538;53.626;9.906;2023-11-18T02:22:18;7.30;99.90
14893;DHT22;7538;53.626;9.906;2023-11-18T02:24:45;6.30;99.90
14893;DHT22;7538;53.626;9.906;2023-11-18T02:27:13;6.30;99.90
14893;DHT22;7538;53.626;9.906;2023-11-18T02:29:42;8.80;99.90
14893;DHT22;7538;53.626;9.906;2023-11-18T02:32:17;6.50;99.90
14893;DHT22;7538;53.626;9.906;2023-11-18T02:34:52;7.80;99.90
14893;DHT22;7538;53.626;9.906;2023-11-18T02:37:25;7.50;99.90
14893;DHT22;7538;53.626;9.906;2023-11-18T02:39:55;7.60;99.90
14893;DHT22;7538;53.626;9.906;2023-11-18T02:42:28;6.70;99.90
14893;DHT22;7538;53.626;9.906;2023-11-18T02:44:57;6.30;99.90
14893;DHT22;7538;53.626;9.906;2023-11-18T02:47:25;7.60;99.90
14893;DHT22;7538;53.626;9.906;2023-11-18T02:49:56;6.30;99.90
14893;DHT22;7538;53.626;9.906;2023-11-18T02:52:28;7.30;99.90
14893;DHT22;7538;53.626;9.906;2023-11-18T02:54:55;7.00;99.90
14893;DHT22;7538;53.626;9.906;2023-11-18T02:57:21;6.30;99.90
14893;DHT22;7538;53.626;9.906;2023-11-18T02:59:50;6.30;99.90
14893;DHT22;7538;53.626;9.906;2023-11-18T03:02:16;7.40;99.90
14893;DHT22;7538;53.626;9.906;2023-11-18T03:04:46;6.30;99.90
14893;DHT22;7538;53.626;9.906;2023-11-18T03:07:13;7.70;99.90
14893;DHT22;7538;53.626;9.906;2023-11-18T03:09:39;9.90;99.90
14893;DHT22;7538;53.626;9.906;2023-11-18T03:12:07;8.10;99.90
14893;DHT22;7538;53.626;9.906;2023-11-18T03:14:34;6.20;99.90
14893;DHT22;7538;53.626;9.906;2023-11-18T03:17:02;6.20;99.90
14893;DHT22;7538;53.626;9.906;2023-11-18T03:19:32;6.20;99.90
14893;DHT22;7538;53.626;9.906;2023-11-18T03:22:00;6.20;99.90
14893;DHT22;7538;53.626;9.906;2023-11-18T03:24:27;8.60;99.90
14893;DHT22;7538;53.626;9.906;2023-11-18T03:26:54;8.40;99.90
14893;DHT22;7538;53.626;9.906;2023-11-18T03:29:21;7.60;99.90
14893;DHT22;7538;53.626;9.906;2023-11-18T03:31:48;6.20;99.90
14893;DHT22;7538;53.626;9.906;2023-11-18T03:34:16;7.30;99.90
14893;DHT22;7538;53.626;9.906;2023-11-18T03:36:45;7.80;99.90
14893;DHT22;7538;53.626;9.906;2023-11-18T03:39:12;6.20;99.90
14893;DHT22;7538;53.626;9.906;2023-11-18T03:41:39;7.30;99.90
14893;DHT22;7538;53.626;9.906;2023-11-18T03:44:10;6.20;99.90
14893;DHT22;7538;53.626;9.906;2023-11-18T03:46:37;8.10;99.90
14893;DHT22;7538;53.626;9.906;2023-11-18T03:49:03;6.10;99.90
14893;DHT22;7538;53.626;9.906;2023-11-18T03:51:32;8.40;99.90
14893;DHT22;7538;53.626;9.906;2023-11-18T03:53:58;6.20;99.90
14893;DHT22;7538;53.626;9.906;2023-11-18T03:56:25;6.40;99.90
14893;DHT22;7538;53.626;9.906;2023-11-18T03:58:53;6.10;99.90
14893;DHT22;7538;53.626;9.906;2023-11-18T04:01:20;6.10;99.90
14893;DHT22;7538;53.626;9.906;2023-11-18T04:03:47;7.30;99.90
14893;DHT22;7538;53.626;9.906;2023-11-18T04:06:14;6.00;99.90
14893;DHT22;7538;53.626;9.906;2023-11-18T04:08:44;6.30;99.90
14893;DHT22;7538;53.626;9.906;2023-11-18T04:11:11;6.20;99.90
14893;DHT22;7538;53.626;9.906;2023-11-18T04:13:39;6.10;99.90
14893;DHT22;7538;53.626;9.906;2023-11-18T04:16:07;5.50;99.90
14893;DHT22;7538;53.626;9.906;2023-11-18T04:18:38;6.10;99.90
14893;DHT22;7538;53.626;9.906;2023-11-18T04:21:05;8.20;99.90
14893;DHT22;7538;53.626;9.906;2023-11-18T04:23:32;6.10;99.90
14893;DHT22;7538;53.626;9.906;2023-11-18T04:26:02;6.00;99.90
14893;DHT22;7538;53.626;9.906;2023-11-18T04:28:28;7.60;99.90
14893;DHT22;7538;53.626;9.906;2023-11-18T04:30:56;7.30;99.90
14893;DHT22;7538;53.626;9.906;2023-11-18T04:33:23;6.00;99.90
14893;DHT22;7538;53.626;9.906;2023-11-18T04:35:50;7.00;99.90
14893;DHT22;7538;53.626;9.906;2023-11-18T04:38:17;4.20;99.90
14893;DHT22;7538;53.626;9.906;2023-11-18T04:40:44;6.20;99.90
14893;DHT22;7538;53.626;9.906;2023-11-18T04:43:12;8.20;99.90
14893;DHT22;7538;53.626;9.906;2023-11-18T04:45:39;5.90;99.90
14893;DHT22;7538;53.626;9.906;2023-11-18T04:48:06;8.00;99.90
14893;DHT22;7538;53.626;9.906;2023-11-18T04:50:33;7.90;99.90
14893;DHT22;7538;53.626;9.906;2023-11-18T04:53:00;5.80;99.90
14893;DHT22;7538;53.626;9.906;2023-11-18T04:55:28;7.20;99.90
14893;DHT22;7538;53.626;9.906;2023-11-18T04:57:55;8.30;99.90
14893;DHT22;7538;53.626;9.906;2023-11-18T05:00:23;5.70;99.90
14893;DHT22;7538;53.626;9.906;2023-11-18T05:02:50;7.30;99.90
14893;DHT22;7538;53.626;9.906;2023-11-18T05:05:18;7.20;99.90
14893;DHT22;7538;53.626;9.906;2023-11-18T05:07:45;7.90;99.90
14893;DHT22;7538;53.626;9.906;2023-11-18T05:10:12;8.10;99.90
14893;DHT22;7538;53.626;9.906;2023-11-18T05:12:39;7.20;99.90
14893;DHT22;7538;53.626;9.906;2023-11-18T05:15:08;5.30;99.90
14893;DHT22;7538;53.626;9.906;2023-11-18T05:17:36;6.70;99.90
14893;DHT22;7538;53.626;9.906;2023-11-18T05:20:05;7.40;99.90
14893;DHT22;7538;53.626;9.906;2023-11-18T05:22:34;5.20;99.90
14893;DHT22;7538;53.626;9.906;2023-11-18T05:25:02;5.10;99.90
14893;DHT22;7538;53.626;9.906;2023-11-18T05:27:29;8.00;99.90
14893;DHT22;7538;53.626;9.906;2023-11-18T05:29:56;6.00;99.90
14893;DHT22;7538;53.626;9.906;2023-11-18T05:32:27;8.00;99.90
14893;DHT22;7538;53.626;9.906;2023-11-18T05:34:55;5.00;99.90
14893;DHT22;7538;53.626;9.906;2023-11-18T05:37:23;4.90;99.90
14893;DHT22;7538;53.626;9.906;2023-11-18T05:39:50;7.10;99.90
14893;DHT22;7538;53.626;9.906;2023-11-18T05:42:24;6.30;99.90
14893;DHT22;7538;53.626;9.906;2023-11-18T05:44:51;6.60;99.90
14893;DHT22;7538;53.626;9.906;2023-11-18T05:47:24;7.30;99.90
14893;DHT22;7538;53.626;9.906;2023-11-18T05:49:51;5.70;99.90
14893;DHT22;7538;53.626;9.906;2023-11-18T05:52:20;6.40;99.90
14893;DHT22;7538;53.626;9.906;2023-11-18T05:54:47;5.60;99.90
14893;DHT22;7538;53.626;9.906;2023-11-18T05:57:15;4.90;99.90
14893;DHT22;7538;53.626;9.906;2023-11-18T05:59:42;5.20;99.90
14893;DHT22;7538;53.626;9.906;2023-11-18T06:02:09;8.10;99.90
14893;DHT22;7538;53.626;9.906;2023-11-18T06:04:38;7.30;99.90
14893;DHT22;7538;53.626;9.906;2023-11-18T06:07:05;7.40;99.90
14893;DHT22;7538;53.626;9.906;2023-11-18T06:09:33;6.60;99.90
14893;DHT22;7538;53.626;9.906;2023-11-18T06:12:00;8.00;99.90
14893;DHT22;7538;53.626;9.906;2023-11-18T06:14:27;5.00;99.90
14893;DHT22;7538;53.626;9.906;2023-11-18T06:16:54;5.30;99.90
14893;DHT22;7538;53.626;9.906;2023-11-18T06:19:21;5.20;99.90
14893;DHT22;7538;53.626;9.906;2023-11-18T06:21:48;7.20;99.90
14893;DHT22;7538;53.626;9.906;2023-11-18T06:24:15;5.70;99.90
14893;DHT22;7538;53.626;9.906;2023-11-18T06:26:45;8.00;99.90
14893;DHT22;7538;53.626;9.906;2023-11-18T06:29:15;4.80;99.90
14893;DHT22;7538;53.626;9.906;2023-11-18T06:31:42;7.40;99.90
14893;DHT22;7538;53.626;9.906;2023-11-18T06:34:09;7.50;99.90
14893;DHT22;7538;53.626;9.906;2023-11-18T06:36:38;7.00;99.90
14893;DHT22;7538;53.626;9.906;2023-11-18T06:39:05;4.70;99.90
14893;DHT22;7538;53.626;9.906;2023-11-18T06:41:33;4.70;99.90
14893;DHT22;7538;53.626;9.906;2023-11-18T06:44:01;7.80;99.90
14893;DHT22;7538;53.626;9.906;2023-11-18T06:46:35;4.70;99.90
14893;DHT22;7538;53.626;9.906;2023-11-18T06:49:05;4.60;99.90
14893;DHT22;7538;53.626;9.906;2023-11-18T06:51:33;4.60;99.90
14893;DHT22;7538;53.626;9.906;2023-11-18T06:54:03;7.40;99.90
14893;DHT22;7538;53.626;9.906;2023-11-18T06:56:35;4.60;99.90
14893;DHT22;7538;53.626;9.906;2023-11-18T06:59:04;4.70;99.90
14893;DHT22;7538;53.626;9.906;2023-11-18T07:01:32;4.70;99.90
14893;DHT22;7538;53.626;9.906;2023-11-18T07:03:59;6.80;99.90
14893;DHT22;7538;53.626;9.906;2023-11-18T07:06:26;4.70;99.90
14893;DHT22;7538;53.626;9.906;2023-11-18T07:08:54;4.80;99.90
14893;DHT22;7538;53.626;9.906;2023-11-18T07:11:22;7.10;99.90
14893;DHT22;7538;53.626;9.906;2023-11-18T07:13:49;7.00;99.90
14893;DHT22;7538;53.626;9.906;2023-11-18T07:16:23;6.50;99.90
14893;DHT22;7538;53.626;9.906;2023-11-18T07:18:50;5.00;99.90
14893;DHT22;7538;53.626;9.906;2023-11-18T07:21:17;5.00;99.90
14893;DHT22;7538;53.626;9.906;2023-11-18T07:23:43;5.10;99.90
14893;DHT22;7538;53.626;9.906;2023-11-18T07:26:10;7.60;99.90
14893;DHT22;7538;53.626;9.906;2023-11-18T07:28:39;5.20;99.90
14893;DHT22;7538;53.626;9.906;2023-11-18T07:31:06;6.90;99.90
14893;DHT22;7538;53.626;9.906;2023-11-18T07:33:35;6.40;99.90
14893;DHT22;7538;53.626;9.906;2023-11-18T07:36:02;7.10;99.90
14893;DHT22;7538;53.626;9.906;2023-11-18T07:38:31;5.40;99.90
14893;DHT22;7538;53.626;9.906;2023-11-18T07:41:00;5.40;99.90
14893;DHT22;7538;53.626;9.906;2023-11-18T07:43:28;5.60;99.90
14893;DHT22;7538;53.626;9.906;2023-11-18T07:45:56;6.10;99.90
14893;DHT22;7538;53.626;9.906;2023-11-18T07:48:23;5.50;99.90
14893;DHT22;7538;53.626;9.906;2023-11-18T07:50:51;7.60;99.90
14893;DHT22;7538;53.626;9.906;2023-11-18T07:53:17;5.60;99.90
14893;DHT22;7538;53.626;9.906;2023-11-18T07:55:44;8.30;99.90
14893;DHT22;7538;53.626;9.906;2023-11-18T07:58:13;5.70;99.90
14893;DHT22;7538;53.626;9.906;2023-11-18T08:00:40;7.20;99.90
14893;DHT22;7538;53.626;9.906;2023-11-18T08:03:08;6.10;99.90
14893;DHT22;7538;53.626;9.906;2023-11-18T08:05:37;8.20;99.90
14893;DHT22;7538;53.626;9.906;2023-11-18T08:08:06;6.70;99.90
14893;DHT22;7538;53.626;9.906;2023-11-18T08:10:34;7.50;99.90
14893;DHT22;7538;53.626;9.906;2023-11-18T08:13:03;6.40;99.90
14893;DHT22;7538;53.626;9.906;2023-11-18T08:15:30;8.20;99.90
14893;DHT22;7538;53.626;9.906;2023-11-18T08:17:57;9.80;99.90
14893;DHT22;7538;53.626;9.906;2023-11-18T08:20:24;9.00;99.90
14893;DHT22;7538;53.626;9.906;2023-11-18T08:22:51;7.30;99.90
14893;DHT22;7538;53.626;9.906;2023-11-18T08:25:20;6.60;99.90
14893;DHT22;7538;53.626;9.906;2023-11-18T08:27:47;6.70;99.90
14893;DHT22;7538;53.626;9.906;2023-11-18T08:30:15;8.00;99.90
14893;DHT22;7538;53.626;9.906;2023-11-18T08:32:45;6.80;99.90
14893;DHT22;7538;53.626;9.906;2023-11-18T08:35:13;6.90;99.90
14893;DHT22;7538;53.626;9.906;2023-11-18T08:37:40;7.00;99.90
14893;DHT22;7538;53.626;9.906;2023-11-18T08:40:11;7.10;99.90
14893;DHT22;7538;53.626;9.906;2023-11-18T08:42:42;7.00;99.90
14893;DHT22;7538;53.626;9.906;2023-11-18T08:45:14;7.40;99.90
14893;DHT22;7538;53.626;9.906;2023-11-18T08:47:43;7.50;99.90
14893;DHT22;7538;53.626;9.906;2023-11-18T08:50:10;7.80;99.90
14893;DHT22;7538;53.626;9.906;2023-11-18T08:52:38;8.30;99.90
14893;DHT22;7538;53.626;9.906;2023-11-18T08:55:12;8.40;99.90
14893;DHT22;7538;53.626;9.906;2023-11-18T08:57:44;7.30;99.90
14893;DHT22;7538;53.626;9.906;2023-11-18T09:00:25;7.40;99.90
14893;DHT22;7538;53.626;9.906;2023-11-18T09:03:10;8.10;99.90
14893;DHT22;7538;53.626;9.906;2023-11-18T09:05:44;8.00;99.90
14893;DHT22;7538;53.626;9.906;2023-11-18T09:08:26;9.70;99.90
14893;DHT22;7538;53.626;9.906;2023-11-18T09:10:55;8.00;99.90
14893;DHT22;7538;53.626;9.906;2023-11-18T09:13:24;8.30;99.90
14893;DHT22;7538;53.626;9.906;2023-11-18T09:15:54;8.40;99.90
14893;DHT22;7538;53.626;9.906;2023-11-18T09:18:22;8.50;99.90
14893;DHT22;7538;53.626;9.906;2023-11-18T09:20:50;8.50;99.90
14893;DHT22;7538;53.626;9.906;2023-11-18T09:23:20;8.50;99.90
14893;DHT22;7538;53.626;9.906;2023-11-18T09:25:49;8.70;99.90
14893;DHT22;7538;53.626;9.906;2023-11-18T09:28:16;10.10;99.90
14893;DHT22;7538;53.626;9.906;2023-11-18T09:30:45;8.90;99.90
14893;DHT22;7538;53.626;9.906;2023-11-18T09:33:19;9.00;99.90
14893;DHT22;7538;53.626;9.906;2023-11-18T09:35:55;9.20;99.90
14893;DHT22;7538;53.626;9.906;2023-11-18T09:38:25;9.50;99.90
14893;DHT22;7538;53.626;9.906;2023-11-18T09:40:53;11.30;99.90
14893;DHT22;7538;53.626;9.906;2023-11-18T09:43:21;10.40;99.90
14893;DHT22;7538;53.626;9.906;2023-11-18T09:45:54;11.00;99.90
14893;DHT22;7538;53.626;9.906;2023-11-18T09:48:22;12.40;99.90
14893;DHT22;7538;53.626;9.906;2023-11-18T09:50:52;12.10;99.90
14893;DHT22;7538;53.626;9.906;2023-11-18T09:53:19;13.00;98.10
14893;DHT22;7538;53.626;9.906;2023-11-18T09:55:52;13.40;96.70
14893;DHT22;7538;53.626;9.906;2023-11-18T09:58:21;13.30;94.70
14893;DHT22;7538;53.626;9.906;2023-11-18T10:00:56;13.20;94.10
14893;DHT22;7538;53.626;9.906;2023-11-18T10:03:28;13.40;94.10
14893;DHT22;7538;53.626;9.906;2023-11-18T10:05:56;12.30;94.90
14893;DHT22;7538;53.626;9.906;2023-11-18T10:08:25;13.90;95.80
14893;DHT22;7538;53.626;9.906;2023-11-18T10:10:51;11.20;96.50
14893;DHT22;7538;53.626;9.906;2023-11-18T10:13:31;10.80;97.60
14893;DHT22;7538;53.626;9.906;2023-11-18T10:16:02;10.20;99.00
14893;DHT22;7538;53.626;9.906;2023-11-18T10:18:31;9.40;99.90
14893;DHT22;7538;53.626;9.906;2023-11-18T10:21:00;9.50;99.90
14893;DHT22;7538;53.626;9.906;2023-11-18T10:23:36;12.70;99.90
14893;DHT22;7538;53.626;9.906;2023-11-18T10:26:03;8.60;99.90
14893;DHT22;7538;53.626;9.906;2023-11-18T10:28:31;9.20;99.90
14893;DHT22;7538;53.626;9.906;2023-11-18T10:31:00;12.50;99.90
14893;DHT22;7538;53.626;9.906;2023-11-18T10:33:31;8.60;99.90
14893;DHT22;7538;53.626;9.906;2023-11-18T10:35:59;8.40;99.90
14893;DHT22;7538;53.626;9.906;2023-11-18T10:38:29;11.60;99.90
14893;DHT22;7538;53.626;9.906;2023-11-18T10:40:57;8.50;99.90
14893;DHT22;7538;53.626;9.906;2023-11-18T10:43:26;8.30;99.90
14893;DHT22;7538;53.626;9.906;2023-11-18T10:46:06;10.00;99.90
14893;DHT22;7538;53.626;9.906;2023-11-18T10:48:39;8.30;99.90
14893;DHT22;7538;53.626;9.906;2023-11-18T10:51:08;8.20;99.90
14893;DHT22;7538;53.626;9.906;2023-11-18T10:53:37;8.30;99.90
14893;DHT22;7538;53.626;9.906;2023-11-18T10:56:05;8.30;99.90
14893;DHT22;7538;53.626;9.906;2023-11-18T10:58:35;8.50;99.90
14893;DHT22;7538;53.626;9.906;2023-11-18T11:01:06;11.60;99.90
14893;DHT22;7538;53.626;9.906;2023-11-18T11:03:52;10.60;99.90
14893;DHT22;7538;53.626;9.906;2023-11-18T11:06:22;8.30;99.90
14893;DHT22;7538;53.626;9.906;2023-11-18T11:08:50;10.80;99.90
14893;DHT22;7538;53.626;9.906;2023-11-18T11:11:19;8.30;99.90
14893;DHT22;7538;53.626;9.906;2023-11-18T11:13:48;8.20;99.90
14893;DHT22;7538;53.626;9.906;2023-11-18T11:16:18;8.20;99.90
14893;DHT22;7538;53.626;9.906;2023-11-18T11:18:55;10.30;99.90
14893;DHT22;7538;53.626;9.906;2023-11-18T11:21:25;8.30;99.90
14893;DHT22;7538;53.626;9.906;2023-11-18T11:23:55;7.80;99.90
14893;DHT22;7538;53.626;9.906;2023-11-18T11:26:33;7.90;99.90
14893;DHT22;7538;53.626;9.906;2023-11-18T11:29:14;9.70;99.90
14893;DHT22;7538;53.626;9.906;2023-11-18T11:31:47;7.90;99.90
14893;DHT22;7538;53.626;9.906;2023-11-18T11:34:17;7.60;99.90
14893;DHT22;7538;53.626;9.906;2023-11-18T11:36:47;10.90;99.90
14893;DHT22;7538;53.626;9.906;2023-11-18T11:39:16;8.10;99.90
14893;DHT22;7538;53.626;9.906;2023-11-18T11:41:52;7.60;99.90
14893;DHT22;7538;53.626;9.906;2023-11-18T11:44:20;7.60;99.90
14893;DHT22;7538;53.626;9.906;2023-11-18T11:46:54;8.00;99.90
14893;DHT22;7538;53.626;9.906;2023-11-18T11:49:24;7.50;99.90
14893;DHT22;7538;53.626;9.906;2023-11-18T11:52:04;8.50;99.90
14893;DHT22;7538;53.626;9.906;2023-11-18T11:54:40;7.50;99.90
14893;DHT22;7538;53.626;9.906;2023-11-18T11:57:10;8.10;99.90
14893;DHT22;7538;53.626;9.906;2023-11-18T11:59:55;8.40;99.90
14893;DHT22;7538;53.626;9.906;2023-11-18T12:02:23;7.40;99.90
14893;DHT22;7538;53.626;9.906;2023-11-18T12:04:56;8.00;99.90
14893;DHT22;7538;53.626;9.906;2023-11-18T12:07:25;7.30;99.90
14893;DHT22;7538;53.626;9.906;2023-11-18T12:09:58;7.90;99.90
14893;DHT22;7538;53.626;9.906;2023-11-18T12:12:27;7.40;99.90
14893;DHT22;7538;53.626;9.906;2023-11-18T12:14:56;7.50;99.90
14893;DHT22;7538;53.626;9.906;2023-11-18T12:18:09;10.30;99.90
14893;DHT22;7538;53.626;9.906;2023-11-18T12:20:42;9.70;99.90
14893;DHT22;7538;53.626;9.906;2023-11-18T12:23:13;9.20;99.90
14893;DHT22;7538;53.626;9.906;2023-11-18T12:25:40;7.70;99.90
14893;DHT22;7538;53.626;9.906;2023-11-18T12:28:08;7.70;99.90
14893;DHT22;7538;53.626;9.906;2023-11-18T12:30:39;7.70;99.90
14893;DHT22;7538;53.626;9.906;2023-11-18T12:33:09;9.60;99.90
14893;DHT22;7538;53.626;9.906;2023-11-18T12:39:08;7.70;99.90
14893;DHT22;7538;53.626;9.906;2023-11-18T12:41:43;7.80;99.90
14893;DHT22;7538;53.626;9.906;2023-11-18T12:44:16;7.90;99.90
14893;DHT22;7538;53.626;9.906;2023-11-18T12:46:50;8.00;99.90
14893;DHT22;7538;53.626;9.906;2023-11-18T12:49:19;7.90;99.90
14893;DHT22;7538;53.626;9.906;2023-11-18T12:51:51;7.80;99.90
14893;DHT22;7538;53.626;9.906;2023-11-18T12:54:19;7.90;99.90
14893;DHT22;7538;53.626;9.906;2023-11-18T12:56:47;9.90;99.90
14893;DHT22;7538;53.626;9.906;2023-11-18T12:59:16;8.20;99.90
14893;DHT22;7538;53.626;9.906;2023-11-18T13:01:44;7.70;99.90
14893;DHT22;7538;53.626;9.906;2023-11-18T13:04:17;7.60;99.90
14893;DHT22;7538;53.626;9.906;2023-11-18T13:06:45;7.50;99.90
14893;DHT22;7538;53.626;9.906;2023-11-18T13:09:15;5.90;99.90
14893;DHT22;7538;53.626;9.906;2023-11-18T13:11:53;7.50;99.90
14893;DHT22;7538;53.626;9.906;2023-11-18T13:14:23;7.60;99.90
14893;DHT22;7538;53.626;9.906;2023-11-18T13:16:52;7.40;99.90
14893;DHT22;7538;53.626;9.906;2023-11-18T13:19:25;10.00;99.90
14893;DHT22;7538;53.626;9.906;2023-11-18T13:21:56;7.50;99.90
14893;DHT22;7538;53.626;9.906;2023-11-18T13:24:25;7.60;99.90
14893;DHT22;7538;53.626;9.906;2023-11-18T13:26:54;9.10;99.90
14893;DHT22;7538;53.626;9.906;2023-11-18T13:29:22;7.50;99.90
14893;DHT22;7538;53.626;9.906;2023-11-18T13:31:50;8.00;99.90
14893;DHT22;7538;53.626;9.906;2023-11-18T13:34:18;7.40;99.90
14893;DHT22;7538;53.626;9.906;2023-11-18T13:36:46;8.40;99.90
14893;DHT22;7538;53.626;9.906;2023-11-18T13:39:16;7.50;99.90
14893;DHT22;7538;53.626;9.906;2023-11-18T13:41:45;7.40;99.90
14893;DHT22;7538;53.626;9.906;2023-11-18T13:44:32;7.50;99.90
14893;DHT22;7538;53.626;9.906;2023-11-18T13:47:01;6.40;99.90
14893;DHT22;7538;53.626;9.906;2023-11-18T13:49:30;8.40;99.90
14893;DHT22;7538;53.626;9.906;2023-11-18T13:51:58;7.90;99.90
14893;DHT22;7538;53.626;9.906;2023-11-18T13:54:27;7.30;99.90
14893;DHT22;7538;53.626;9.906;2023-11-18T13:56:56;10.50;99.90
14893;DHT22;7538;53.626;9.906;2023-11-18T13:59:24;8.10;99.90
14893;DHT22;7538;53.626;9.906;2023-11-18T14:01:52;8.30;99.90
14893;DHT22;7538;53.626;9.906;2023-11-18T14:04:22;7.10;99.90
14893;DHT22;7538;53.626;9.906;2023-11-18T14:06:51;10.00;99.90
14893;DHT22;7538;53.626;9.906;2023-11-18T14:09:19;7.30;99.90
14893;DHT22;7538;53.626;9.906;2023-11-18T14:11:47;10.70;99.90
14893;DHT22;7538;53.626;9.906;2023-11-18T14:14:16;7.90;99.90
14893;DHT22;7538;53.626;9.906;2023-11-18T14:16:44;9.40;99.90
14893;DHT22;7538;53.626;9.906;2023-11-18T14:19:10;7.20;99.90
14893;DHT22;7538;53.626;9.906;2023-11-18T14:21:38;7.20;99.90
14893;DHT22;7538;53.626;9.906;2023-11-18T14:24:07;7.20;99.90
14893;DHT22;7538;53.626;9.906;2023-11-18T14:26:33;7.10;99.90
14893;DHT22;7538;53.626;9.906;2023-11-18T14:29:01;7.30;99.90
14893;DHT22;7538;53.626;9.906;2023-11-18T14:31:29;7.50;99.90
14893;DHT22;7538;53.626;9.906;2023-11-18T14:33:56;8.20;99.90
14893;DHT22;7538;53.626;9.906;2023-11-18T14:36:24;7.80;99.90
14893;DHT22;7538;53.626;9.906;2023-11-18T14:38:51;6.80;99.90
14893;DHT22;7538;53.626;9.906;2023-11-18T14:41:18;6.70;99.90
14893;DHT22;7538;53.626;9.906;2023-11-18T14:43:45;6.60;99.90
14893;DHT22;7538;53.626;9.906;2023-11-18T14:46:12;8.50;99.90
14893;DHT22;7538;53.626;9.906;2023-11-18T14:48:41;6.60;99.90
14893;DHT22;7538;53.626;9.906;2023-11-18T14:51:08;8.70;99.90
14893;DHT22;7538;53.626;9.906;2023-11-18T14:53:35;6.90;99.90
14893;DHT22;7538;53.626;9.906;2023-11-18T14:56:01;8.40;99.90
14893;DHT22;7538;53.626;9.906;2023-11-18T14:58:30;6.60;99.90
14893;DHT22;7538;53.626;9.906;2023-11-18T15:00:58;6.60;99.90
14893;DHT22;7538;53.626;9.906;2023-11-18T15:03:26;6.50;99.90
14893;DHT22;7538;53.626;9.906;2023-11-18T15:05:54;6.50;99.90
14893;DHT22;7538;53.626;9.906;2023-11-18T15:08:21;6.50;99.90
14893;DHT22;7538;53.626;9.906;2023-11-18T15:10:48;6.50;99.90
14893;DHT22;7538;53.626;9.906;2023-11-18T15:13:16;6.60;99.90
14893;DHT22;7538;53.626;9.906;2023-11-18T15:15:44;8.00;99.90
14893;DHT22;7538;53.626;9.906;2023-11-18T15:18:13;6.50;99.90
14893;DHT22;7538;53.626;9.906;2023-11-18T15:20:43;7.80;99.90
14893;DHT22;7538;53.626;9.906;2023-11-18T15:23:14;6.50;99.90
14893;DHT22;7538;53.626;9.906;2023-11-18T15:25:42;8.00;99.90
14893;DHT22;7538;53.626;9.906;2023-11-18T15:28:09;6.50;99.90
14893;DHT22;7538;53.626;9.906;2023-11-18T15:30:36;6.50;99.90
14893;DHT22;7538;53.626;9.906;2023-11-18T15:33:04;8.30;99.90
14893;DHT22;7538;53.626;9.906;2023-11-18T15:35:33;6.40;99.90
14893;DHT22;7538;53.626;9.906;2023-11-18T15:38:04;6.90;99.90
14893;DHT22;7538;53.626;9.906;2023-11-18T15:40:35;7.30;99.90
14893;DHT22;7538;53.626;9.906;2023-11-18T15:43:03;6.50;99.90
14893;DHT22;7538;53.626;9.906;2023-11-18T15:45:31;6.20;99.90
14893;DHT22;7538;53.626;9.906;2023-11-18T15:48:00;8.40;99.90
14893;DHT22;7538;53.626;9.906;2023-11-18T15:50:31;8.20;99.90
14893;DHT22;7538;53.626;9.906;2023-11-18T15:52:58;6.30;99.90
14893;DHT22;7538;53.626;9.906;2023-11-18T15:55:25;9.70;99.90
14893;DHT22;7538;53.626;9.906;2023-11-18T15:57:53;10.00;99.90
14893;DHT22;7538;53.626;9.906;2023-11-18T16:00:21;6.40;99.90
14893;DHT22;7538;53.626;9.906;2023-11-18T16:02:51;6.40;99.90
14893;DHT22;7538;53.626;9.906;2023-11-18T16:05:19;7.80;99.90
14893;DHT22;7538;53.626;9.906;2023-11-18T16:07:48;7.50;99.90
14893;DHT22;7538;53.626;9.906;2023-11-18T16:10:17;6.40;99.90
14893;DHT22;7538;53.626;9.906;2023-11-18T16:12:47;6.40;99.90
14893;DHT22;7538;53.626;9.906;2023-11-18T16:15:14;8.50;99.90